sensor_id;sensor_type;location;lat;lon;timestamp;pressure;altitude;pressure_sealevel;temperature;humidity
60258;BME280;46115;44.484;11.314;2023-02-21T00:02:31;101099.28;;;8.99;84.32
60258;BME280;46115;44.484;11.314;2023-02-21T00:06:50;101077.84;;;8.84;84.31
60258;BME280;46115;44.484;11.314;2023-02-21T00:11:10;101109.31;;;8.88;85.45
60258;BME280;46115;44.484;11.314;2023-02-21T00:15:31;101084.38;;;8.72;85.91
60258;BME280;46115;44.484;11.314;2023-02-21T00:19:51;101102.47;;;8.83;85.31
60258;BME280;46115;44.484;11.314;2023-02-21T00:24:12;101094.00;;;8.73;86.17
60258;BME280;46115;44.484;11.314;2023-02-21T00:28:33;101099.69;;;8.87;86.09
60258;BME280;46115;44.484;11.314;2023-02-21T00:32:54;101094.91;;;8.72;86.23
60258;BME280;46115;44.484;11.314;2023-02-21T00:37:14;101043.09;;;8.43;86.16
60258;BME280;46115;44.484;11.314;2023-02-21T00:41:34;101088.03;;;8.66;86.56
60258;BME280;46115;44.484;11.314;2023-02-21T00:45:54;101086.19;;;8.70;86.36
60258;BME280;46115;44.484;11.314;2023-02-21T00:50:15;101082.81;;;8.65;86.79
60258;BME280;46115;44.484;11.314;2023-02-21T00:54:35;101066.25;;;8.61;86.74
60258;BME280;46115;44.484;11.314;2023-02-21T00:58:55;101074.16;;;8.61;86.21
60258;BME280;46115;44.484;11.314;2023-02-21T01:03:15;101071.56;;;8.60;86.65
60258;BME280;46115;44.484;11.314;2023-02-21T01:07:36;101061.59;;;8.41;87.00
60258;BME280;46115;44.484;11.314;2023-02-21T01:11:56;101063.13;;;8.49;87.15
60258;BME280;46115;44.484;11.314;2023-02-21T01:16:16;101063.75;;;8.57;87.14
60258;BME280;46115;44.484;11.314;2023-02-21T01:20:36;101057.16;;;8.43;87.54
60258;BME280;46115;44.484;11.314;2023-02-21T01:24:57;101055.41;;;8.42;88.43
60258;BME280;46115;44.484;11.314;2023-02-21T01:29:17;101047.88;;;8.29;89.03
60258;BME280;46115;44.484;11.314;2023-02-21T01:33:38;101040.13;;;8.24;88.95
60258;BME280;46115;44.484;11.314;2023-02-21T01:37:59;101036.53;;;8.27;88.13
60258;BME280;46115;44.484;11.314;2023-02-21T01:42:21;101034.28;;;8.14;88.68
60258;BME280;46115;44.484;11.314;2023-02-21T01:46:40;101029.88;;;8.15;87.95
60258;BME280;46115;44.484;11.314;2023-02-21T01:51:02;101028.25;;;8.11;88.21
60258;BME280;46115;44.484;11.314;2023-02-21T01:55:23;101028.88;;;8.19;88.17
60258;BME280;46115;44.484;11.314;2023-02-21T01:59:44;101031.78;;;8.10;88.60
60258;BME280;46115;44.484;11.314;2023-02-21T02:04:14;101028.88;;;8.19;87.82
60258;BME280;46115;44.484;11.314;2023-02-21T02:08:34;101020.94;;;8.21;87.86
60258;BME280;46115;44.484;11.314;2023-02-21T02:13:16;101020.06;;;8.20;87.90
60258;BME280;46115;44.484;11.314;2023-02-21T02:17:30;101018.44;;;8.16;88.29
60258;BME280;46115;44.484;11.314;2023-02-21T02:22:04;101018.44;;;8.16;89.20
60258;BME280;46115;44.484;11.314;2023-02-21T02:26:38;101009.81;;;8.11;89.12
60258;BME280;46115;44.484;11.314;2023-02-21T02:30:59;101003.16;;;7.98;89.00
60258;BME280;46115;44.484;11.314;2023-02-21T02:35:08;101006.94;;;7.89;89.49
60258;BME280;46115;44.484;11.314;2023-02-21T02:39:23;101006.81;;;7.94;89.31
60258;BME280;46115;44.484;11.314;2023-02-21T02:43:31;100998.19;;;7.89;89.19
60258;BME280;46115;44.484;11.314;2023-02-21T02:47:36;100996.94;;;8.02;88.93
60258;BME280;46115;44.484;11.314;2023-02-21T02:51:41;100988.94;;;8.05;89.06
60258;BME280;46115;44.484;11.314;2023-02-21T02:55:47;100997.38;;;8.16;88.58
60258;BME280;46115;44.484;11.314;2023-02-21T02:59:53;100995.94;;;8.06;87.92
60258;BME280;46115;44.484;11.314;2023-02-21T03:04:11;100993.81;;;8.17;87.73
60258;BME280;46115;44.484;11.314;2023-02-21T03:08:26;100998.28;;;8.15;87.50
60258;BME280;46115;44.484;11.314;2023-02-21T03:12:35;100993.09;;;8.12;87.50
60258;BME280;46115;44.484;11.314;2023-02-21T03:16:43;100992.38;;;8.07;86.72
60258;BME280;46115;44.484;11.314;2023-02-21T03:20:52;100980.72;;;7.86;86.48
60258;BME280;46115;44.484;11.314;2023-02-21T03:24:59;100941.22;;;7.57;87.71
60258;BME280;46115;44.484;11.314;2023-02-21T03:29:03;100985.84;;;7.91;87.42
60258;BME280;46115;44.484;11.314;2023-02-21T03:33:06;100965.19;;;8.06;88.60
60258;BME280;46115;44.484;11.314;2023-02-21T03:37:10;100989.28;;;7.93;88.25
60258;BME280;46115;44.484;11.314;2023-02-21T03:41:21;100985.34;;;8.07;87.92
60258;BME280;46115;44.484;11.314;2023-02-21T03:45:23;100980.38;;;7.98;87.92
60258;BME280;46115;44.484;11.314;2023-02-21T03:49:45;100985.31;;;8.09;88.45
60258;BME280;46115;44.484;11.314;2023-02-21T03:53:48;100983.97;;;7.94;87.54
60258;BME280;46115;44.484;11.314;2023-02-21T03:57:55;100979.47;;;7.98;88.10
60258;BME280;46115;44.484;11.314;2023-02-21T04:01:58;100980.28;;;8.01;88.54
60258;BME280;46115;44.484;11.314;2023-02-21T04:06:04;100971.75;;;7.92;88.41
60258;BME280;46115;44.484;11.314;2023-02-21T04:10:07;100971.22;;;7.80;88.06
60258;BME280;46115;44.484;11.314;2023-02-21T04:14:16;100974.69;;;7.82;88.18
60258;BME280;46115;44.484;11.314;2023-02-21T04:18:19;100986.66;;;7.63;88.20
60258;BME280;46115;44.484;11.314;2023-02-21T04:22:23;100978.78;;;7.62;87.99
60258;BME280;46115;44.484;11.314;2023-02-21T04:26:26;100974.44;;;7.61;89.19
60258;BME280;46115;44.484;11.314;2023-02-21T04:30:32;100981.03;;;7.75;90.30
60258;BME280;46115;44.484;11.314;2023-02-21T04:34:34;100970.28;;;7.83;89.95
60258;BME280;46115;44.484;11.314;2023-02-21T04:38:36;100981.00;;;7.77;89.76
60258;BME280;46115;44.484;11.314;2023-02-21T04:42:39;100978.41;;;7.75;89.63
60258;BME280;46115;44.484;11.314;2023-02-21T04:46:42;100970.28;;;7.83;90.21
60258;BME280;46115;44.484;11.314;2023-02-21T04:50:45;100978.03;;;7.88;90.28
60258;BME280;46115;44.484;11.314;2023-02-21T04:54:47;100977.16;;;7.87;90.75
60258;BME280;46115;44.484;11.314;2023-02-21T04:58:50;100979.31;;;7.74;91.62
60258;BME280;46115;44.484;11.314;2023-02-21T05:02:53;100980.00;;;7.81;92.09
60258;BME280;46115;44.484;11.314;2023-02-21T05:06:58;100962.44;;;7.81;93.40
60258;BME280;46115;44.484;11.314;2023-02-21T05:11:00;100974.06;;;8.04;93.33
60258;BME280;46115;44.484;11.314;2023-02-21T05:15:03;100973.81;;;8.11;92.59
60258;BME280;46115;44.484;11.314;2023-02-21T05:19:06;100966.53;;;8.20;92.63
60258;BME280;46115;44.484;11.314;2023-02-21T05:23:08;100964.34;;;8.32;93.31
60258;BME280;46115;44.484;11.314;2023-02-21T05:27:10;100966.16;;;8.33;92.55
60258;BME280;46115;44.484;11.314;2023-02-21T05:31:15;100956.47;;;8.34;92.92
60258;BME280;46115;44.484;11.314;2023-02-21T05:35:19;100950.34;;;8.33;91.93
60258;BME280;46115;44.484;11.314;2023-02-21T05:39:21;100948.69;;;8.28;91.67
60258;BME280;46115;44.484;11.314;2023-02-21T05:43:23;100904.50;;;8.11;91.67
60258;BME280;46115;44.484;11.314;2023-02-21T05:47:25;100948.59;;;8.31;92.03
60258;BME280;46115;44.484;11.314;2023-02-21T05:51:33;100950.91;;;8.43;91.84
60258;BME280;46115;44.484;11.314;2023-02-21T05:55:37;100928.38;;;8.33;92.26
60258;BME280;46115;44.484;11.314;2023-02-21T05:59:39;100952.09;;;8.33;92.46
60258;BME280;46115;44.484;11.314;2023-02-21T06:03:41;100948.81;;;8.53;91.93
60258;BME280;46115;44.484;11.314;2023-02-21T06:07:45;100945.56;;;8.44;91.39
60258;BME280;46115;44.484;11.314;2023-02-21T06:11:47;100945.72;;;8.40;90.79
60258;BME280;46115;44.484;11.314;2023-02-21T06:15:50;100947.75;;;8.58;91.20
60258;BME280;46115;44.484;11.314;2023-02-21T06:19:54;100952.22;;;8.56;91.23
60258;BME280;46115;44.484;11.314;2023-02-21T06:23:58;100926.88;;;8.52;91.55
60258;BME280;46115;44.484;11.314;2023-02-21T06:28:01;100949.47;;;8.59;91.41
60258;BME280;46115;44.484;11.314;2023-02-21T06:32:03;100955.72;;;8.57;91.01
60258;BME280;46115;44.484;11.314;2023-02-21T06:36:07;100952.09;;;8.59;90.74
60258;BME280;46115;44.484;11.314;2023-02-21T06:40:13;100949.06;;;8.45;90.04
60258;BME280;46115;44.484;11.314;2023-02-21T06:44:15;100959.34;;;8.53;90.30
60258;BME280;46115;44.484;11.314;2023-02-21T06:48:18;100956.41;;;8.62;90.11
60258;BME280;46115;44.484;11.314;2023-02-21T06:52:20;100959.31;;;8.81;90.68
60258;BME280;46115;44.484;11.314;2023-02-21T06:56:27;100964.31;;;8.88;91.07
60258;BME280;46115;44.484;11.314;2023-02-21T07:00:30;100968.84;;;8.85;89.80
60258;BME280;46115;44.484;11.314;2023-02-21T07:04:32;100968.88;;;9.10;88.39
60258;BME280;46115;44.484;11.314;2023-02-21T07:08:34;100977.03;;;9.27;88.37
60258;BME280;46115;44.484;11.314;2023-02-21T07:12:38;100977.31;;;9.44;87.41
60258;BME280;46115;44.484;11.314;2023-02-21T07:16:41;100992.09;;;9.48;86.68
60258;BME280;46115;44.484;11.314;2023-02-21T07:20:44;100988.09;;;9.85;85.80
60258;BME280;46115;44.484;11.314;2023-02-21T07:24:46;100993.16;;;9.91;84.27
60258;BME280;46115;44.484;11.314;2023-02-21T07:28:49;100992.63;;;10.05;82.93
60258;BME280;46115;44.484;11.314;2023-02-21T07:32:52;100997.03;;;10.04;82.80
60258;BME280;46115;44.484;11.314;2023-02-21T07:36:54;100955.88;;;9.98;82.76
60258;BME280;46115;44.484;11.314;2023-02-21T07:40:59;100998.66;;;10.31;82.53
60258;BME280;46115;44.484;11.314;2023-02-21T07:45:03;101001.81;;;10.41;82.25
60258;BME280;46115;44.484;11.314;2023-02-21T07:49:05;100997.97;;;10.70;80.71
60258;BME280;46115;44.484;11.314;2023-02-21T07:53:10;101003.59;;;11.45;78.04
60258;BME280;46115;44.484;11.314;2023-02-21T07:57:14;101000.06;;;14.45;66.37
60258;BME280;46115;44.484;11.314;2023-02-21T08:01:25;101001.34;;;16.29;58.78
60258;BME280;46115;44.484;11.314;2023-02-21T08:05:27;101006.63;;;16.71;56.24
60258;BME280;46115;44.484;11.314;2023-02-21T08:09:30;101019.16;;;16.28;58.48
60258;BME280;46115;44.484;11.314;2023-02-21T08:13:33;101014.59;;;17.89;54.93
60258;BME280;46115;44.484;11.314;2023-02-21T08:17:37;101018.38;;;19.31;50.92
60258;BME280;46115;44.484;11.314;2023-02-21T08:21:43;101024.31;;;19.23;51.42
60258;BME280;46115;44.484;11.314;2023-02-21T08:25:46;101016.31;;;20.80;48.27
60258;BME280;46115;44.484;11.314;2023-02-21T08:29:49;101027.63;;;21.27;46.53
60258;BME280;46115;44.484;11.314;2023-02-21T08:33:53;101024.34;;;21.23;46.86
60258;BME280;46115;44.484;11.314;2023-02-21T08:37:55;101031.22;;;22.39;43.52
60258;BME280;46115;44.484;11.314;2023-02-21T08:42:03;101015.66;;;20.33;47.72
60258;BME280;46115;44.484;11.314;2023-02-21T08:46:05;101014.94;;;19.64;49.13
60258;BME280;46115;44.484;11.314;2023-02-21T08:50:11;101016.00;;;17.94;53.37
60258;BME280;46115;44.484;11.314;2023-02-21T08:54:14;101010.63;;;18.07;53.65
60258;BME280;46115;44.484;11.314;2023-02-21T08:58:16;101015.59;;;17.10;55.88
60258;BME280;46115;44.484;11.314;2023-02-21T09:02:21;101015.75;;;16.94;56.85
60258;BME280;46115;44.484;11.314;2023-02-21T09:06:26;101019.72;;;18.17;53.77
60258;BME280;46115;44.484;11.314;2023-02-21T09:10:31;101013.31;;;17.56;54.88
60258;BME280;46115;44.484;11.314;2023-02-21T09:14:36;101001.09;;;16.33;58.07
60258;BME280;46115;44.484;11.314;2023-02-21T09:18:39;101018.44;;;21.29;46.17
60258;BME280;46115;44.484;11.314;2023-02-21T09:22:43;101035.19;;;24.37;38.96
60258;BME280;46115;44.484;11.314;2023-02-21T09:26:46;101030.63;;;24.00;39.94
60258;BME280;46115;44.484;11.314;2023-02-21T09:30:50;101025.31;;;24.45;38.05
60258;BME280;46115;44.484;11.314;2023-02-21T09:34:52;101018.97;;;25.17;36.97
60258;BME280;46115;44.484;11.314;2023-02-21T09:38:56;101028.78;;;26.48;35.08
60258;BME280;46115;44.484;11.314;2023-02-21T09:43:00;101024.53;;;25.34;36.09
60258;BME280;46115;44.484;11.314;2023-02-21T09:47:05;101023.06;;;25.22;36.50
60258;BME280;46115;44.484;11.314;2023-02-21T09:51:10;101023.91;;;24.69;37.30
60258;BME280;46115;44.484;11.314;2023-02-21T09:55:21;100999.38;;;21.32;43.87
60258;BME280;46115;44.484;11.314;2023-02-21T09:59:28;100997.38;;;18.05;52.35
60258;BME280;46115;44.484;11.314;2023-02-21T10:03:43;100997.75;;;18.85;51.07
60258;BME280;46115;44.484;11.314;2023-02-21T10:12:27;101007.59;;;17.10;56.55
60258;BME280;46115;44.484;11.314;2023-02-21T10:16:33;100968.81;;;17.04;56.68
60258;BME280;46115;44.484;11.314;2023-02-21T10:20:40;101001.09;;;16.87;57.88
60258;BME280;46115;44.484;11.314;2023-02-21T10:24:46;100987.97;;;16.16;59.06
60258;BME280;46115;44.484;11.314;2023-02-21T10:28:52;100995.34;;;16.39;59.05
60258;BME280;46115;44.484;11.314;2023-02-21T10:32:54;100984.31;;;15.46;61.89
60258;BME280;46115;44.484;11.314;2023-02-21T10:37:01;100991.75;;;15.55;61.68
60258;BME280;46115;44.484;11.314;2023-02-21T10:41:05;100983.13;;;15.94;60.35
60258;BME280;46115;44.484;11.314;2023-02-21T10:45:11;100982.66;;;15.73;61.48
60258;BME280;46115;44.484;11.314;2023-02-21T10:49:21;100976.28;;;15.76;61.95
60258;BME280;46115;44.484;11.314;2023-02-21T10:53:28;100967.41;;;15.33;63.87
60258;BME280;46115;44.484;11.314;2023-02-21T10:57:32;100971.53;;;15.22;64.56
60258;BME280;46115;44.484;11.314;2023-02-21T11:01:42;100961.22;;;15.32;63.96
60258;BME280;46115;44.484;11.314;2023-02-21T11:05:47;100961.50;;;15.27;64.28
60258;BME280;46115;44.484;11.314;2023-02-21T11:09:51;100952.31;;;15.62;62.73
60258;BME280;46115;44.484;11.314;2023-02-21T11:14:06;100958.03;;;15.11;64.54
60258;BME280;46115;44.484;11.314;2023-02-21T11:18:16;100945.59;;;15.40;63.48
60258;BME280;46115;44.484;11.314;2023-02-21T11:22:21;100935.75;;;15.71;63.07
60258;BME280;46115;44.484;11.314;2023-02-21T11:26:27;100933.38;;;15.66;62.56
60258;BME280;46115;44.484;11.314;2023-02-21T11:30:32;100935.28;;;15.20;64.97
60258;BME280;46115;44.484;11.314;2023-02-21T11:34:37;100936.72;;;15.25;64.13
60258;BME280;46115;44.484;11.314;2023-02-21T11:38:59;100919.03;;;15.53;63.58
60258;BME280;46115;44.484;11.314;2023-02-21T11:43:16;100911.84;;;15.26;65.18
60258;BME280;46115;44.484;11.314;2023-02-21T11:47:21;100903.38;;;15.34;64.81
60258;BME280;46115;44.484;11.314;2023-02-21T11:51:40;100892.41;;;15.24;63.94
60258;BME280;46115;44.484;11.314;2023-02-21T11:55:53;100880.59;;;14.56;65.53
60258;BME280;46115;44.484;11.314;2023-02-21T12:00:06;100897.19;;;15.34;63.68
60258;BME280;46115;44.484;11.314;2023-02-21T12:04:43;100886.81;;;15.43;63.58
60258;BME280;46115;44.484;11.314;2023-02-21T12:08:55;100874.81;;;15.50;62.75
60258;BME280;46115;44.484;11.314;2023-02-21T12:13:08;100868.91;;;15.03;63.96
60258;BME280;46115;44.484;11.314;2023-02-21T12:17:45;100860.34;;;15.26;62.16
60258;BME280;46115;44.484;11.314;2023-02-21T12:22:00;100863.97;;;15.11;63.14
60258;BME280;46115;44.484;11.314;2023-02-21T12:26:17;100850.75;;;14.95;63.86
60258;BME280;46115;44.484;11.314;2023-02-21T12:30:43;100852.03;;;14.59;65.11
60258;BME280;46115;44.484;11.314;2023-02-21T12:35:04;100840.06;;;14.66;65.22
60258;BME280;46115;44.484;11.314;2023-02-21T12:39:22;100836.38;;;14.83;64.86
60258;BME280;46115;44.484;11.314;2023-02-21T12:43:45;100835.50;;;15.25;63.91
60258;BME280;46115;44.484;11.314;2023-02-21T12:47:57;100843.88;;;15.48;62.49
60258;BME280;46115;44.484;11.314;2023-02-21T12:52:05;100831.16;;;15.67;61.90
60258;BME280;46115;44.484;11.314;2023-02-21T12:56:14;100815.66;;;15.17;63.69
60258;BME280;46115;44.484;11.314;2023-02-21T13:00:20;100823.72;;;15.44;62.60
60258;BME280;46115;44.484;11.314;2023-02-21T13:04:31;100821.53;;;15.65;62.44
60258;BME280;46115;44.484;11.314;2023-02-21T13:08:44;100813.44;;;15.66;62.86
60258;BME280;46115;44.484;11.314;2023-02-21T13:12:54;100814.06;;;15.55;62.61
60258;BME280;46115;44.484;11.314;2023-02-21T13:16:59;100807.66;;;15.17;63.22
60258;BME280;46115;44.484;11.314;2023-02-21T13:21:07;100792.38;;;14.92;63.98
60258;BME280;46115;44.484;11.314;2023-02-21T13:25:22;100799.22;;;14.96;63.52
60258;BME280;46115;44.484;11.314;2023-02-21T13:29:29;100792.34;;;15.20;62.91
60258;BME280;46115;44.484;11.314;2023-02-21T13:33:38;100794.34;;;15.31;63.07
60258;BME280;46115;44.484;11.314;2023-02-21T13:37:45;100747.09;;;15.06;63.09
60258;BME280;46115;44.484;11.314;2023-02-21T13:41:52;100787.22;;;15.17;63.47
60258;BME280;46115;44.484;11.314;2023-02-21T13:50:54;100771.91;;;15.35;62.54
60258;BME280;46115;44.484;11.314;2023-02-21T13:55:29;100767.06;;;15.54;61.73
60258;BME280;46115;44.484;11.314;2023-02-21T13:59:35;100760.78;;;15.70;61.90
60258;BME280;46115;44.484;11.314;2023-02-21T14:03:39;100761.63;;;15.15;63.55
60258;BME280;46115;44.484;11.314;2023-02-21T14:07:58;100753.19;;;15.49;62.06
60258;BME280;46115;44.484;11.314;2023-02-21T14:12:01;100748.44;;;14.99;63.76
60258;BME280;46115;44.484;11.314;2023-02-21T14:16:12;100735.31;;;14.82;62.94
60258;BME280;46115;44.484;11.314;2023-02-21T14:20:21;100741.59;;;15.09;62.88
60258;BME280;46115;44.484;11.314;2023-02-21T14:24:26;100739.41;;;14.87;63.06
60258;BME280;46115;44.484;11.314;2023-02-21T14:28:49;100741.00;;;14.47;64.07
60258;BME280;46115;44.484;11.314;2023-02-21T14:32:53;100733.31;;;14.57;63.46
60258;BME280;46115;44.484;11.314;2023-02-21T14:37:01;100736.47;;;14.78;62.96
60258;BME280;46115;44.484;11.314;2023-02-21T14:41:27;100738.53;;;14.44;64.36
60258;BME280;46115;44.484;11.314;2023-02-21T14:45:54;100721.91;;;14.55;64.81
60258;BME280;46115;44.484;11.314;2023-02-21T14:50:19;100724.19;;;14.47;64.61
60258;BME280;46115;44.484;11.314;2023-02-21T14:54:55;100727.03;;;13.99;66.55
60258;BME280;46115;44.484;11.314;2023-02-21T14:59:22;100701.09;;;13.73;67.64
60258;BME280;46115;44.484;11.314;2023-02-21T15:03:31;100707.91;;;14.37;65.44
60258;BME280;46115;44.484;11.314;2023-02-21T15:07:44;100701.41;;;14.13;66.59
60258;BME280;46115;44.484;11.314;2023-02-21T15:11:52;100698.38;;;13.74;67.70
60258;BME280;46115;44.484;11.314;2023-02-21T15:15:58;100701.59;;;13.80;67.20
60258;BME280;46115;44.484;11.314;2023-02-21T15:20:03;100697.56;;;13.88;67.23
60258;BME280;46115;44.484;11.314;2023-02-21T15:24:12;100689.69;;;13.57;68.49
60258;BME280;46115;44.484;11.314;2023-02-21T15:28:21;100694.81;;;13.60;68.81
60258;BME280;46115;44.484;11.314;2023-02-21T15:32:24;100686.78;;;13.76;68.49
60258;BME280;46115;44.484;11.314;2023-02-21T15:36:27;100675.38;;;13.43;69.08
60258;BME280;46115;44.484;11.314;2023-02-21T15:40:30;100674.16;;;13.65;68.74
60258;BME280;46115;44.484;11.314;2023-02-21T15:44:37;100677.94;;;13.61;68.53
60258;BME280;46115;44.484;11.314;2023-02-21T15:48:41;100676.38;;;13.87;67.99
60258;BME280;46115;44.484;11.314;2023-02-21T15:52:46;100679.13;;;13.85;67.79
60258;BME280;46115;44.484;11.314;2023-02-21T15:57:02;100669.09;;;13.90;68.06
60258;BME280;46115;44.484;11.314;2023-02-21T16:01:09;100679.31;;;13.82;68.43
60258;BME280;46115;44.484;11.314;2023-02-21T16:05:22;100628.28;;;13.31;69.08
60258;BME280;46115;44.484;11.314;2023-02-21T16:09:26;100675.66;;;13.69;68.73
60258;BME280;46115;44.484;11.314;2023-02-21T16:13:34;100666.81;;;13.38;68.96
60258;BME280;46115;44.484;11.314;2023-02-21T16:17:39;100680.28;;;13.35;69.60
60258;BME280;46115;44.484;11.314;2023-02-21T16:21:44;100653.19;;;13.13;70.06
60258;BME280;46115;44.484;11.314;2023-02-21T16:25:56;100677.84;;;12.99;71.28
60258;BME280;46115;44.484;11.314;2023-02-21T16:29:58;100672.63;;;12.98;71.47
60258;BME280;46115;44.484;11.314;2023-02-21T16:34:02;100682.13;;;13.02;71.43
60258;BME280;46115;44.484;11.314;2023-02-21T16:38:04;100650.63;;;12.64;72.52
60258;BME280;46115;44.484;11.314;2023-02-21T16:42:09;100680.47;;;12.68;73.03
60258;BME280;46115;44.484;11.314;2023-02-21T16:46:11;100679.72;;;12.81;73.19
60258;BME280;46115;44.484;11.314;2023-02-21T16:50:22;100677.59;;;12.88;73.29
60258;BME280;46115;44.484;11.314;2023-02-21T16:54:27;100679.13;;;12.76;73.82
60258;BME280;46115;44.484;11.314;2023-02-21T16:58:30;100680.97;;;12.59;74.32
60258;BME280;46115;44.484;11.314;2023-02-21T17:02:33;100680.31;;;12.71;74.43
60258;BME280;46115;44.484;11.314;2023-02-21T17:06:37;100679.88;;;12.78;73.99
60258;BME280;46115;44.484;11.314;2023-02-21T17:10:40;100686.81;;;12.81;74.23
60258;BME280;46115;44.484;11.314;2023-02-21T17:14:42;100680.56;;;12.33;75.85
60258;BME280;46115;44.484;11.314;2023-02-21T17:18:45;100684.28;;;12.46;75.61
60258;BME280;46115;44.484;11.314;2023-02-21T23:06:08;100701.69;;;11.30;84.58
60258;BME280;46115;44.484;11.314;2023-02-21T23:10:10;100695.94;;;11.39;83.73
60258;BME280;46115;44.484;11.314;2023-02-21T23:14:17;100699.94;;;11.47;83.60
60258;BME280;46115;44.484;11.314;2023-02-21T23:18:23;100684.84;;;11.49;82.67
60258;BME280;46115;44.484;11.314;2023-02-21T23:22:27;100695.91;;;11.57;83.33
60258;BME280;46115;44.484;11.314;2023-02-21T23:26:29;100669.59;;;11.54;82.80
60258;BME280;46115;44.484;11.314;2023-02-21T23:30:32;100678.94;;;11.62;82.76
60258;BME280;46115;44.484;11.314;2023-02-21T23:34:40;100677.84;;;11.66;82.90
60258;BME280;46115;44.484;11.314;2023-02-21T23:38:43;100673.72;;;11.60;83.11
60258;BME280;46115;44.484;11.314;2023-02-21T23:42:47;100675.59;;;11.58;82.60
60258;BME280;46115;44.484;11.314;2023-02-21T23:46:50;100678.88;;;11.44;83.37
60258;BME280;46115;44.484;11.314;2023-02-21T23:50:54;100677.25;;;11.42;83.56
60258;BME280;46115;44.484;11.314;2023-02-21T23:54:58;100690.56;;;11.40;84.97
60258;BME280;46115;44.484;11.314;2023-02-21T23:59:01;100687.03;;;11.76;82.86
